This is the latest recevied weather packets stored in our database for station/object DL6DBZ-10. If no packets are shown the sender has not sent any weather packets the latest 10 day(s).
| Time | Temp. | Humidity | Pressure | Rain* | Wind** | Luminosity | Snow |
|---|---|---|---|---|---|---|---|
| 1787645247 | 18.33° C | 54% | 1020.9 hPa | - | - | - | - |
| 1787644646 | 18.33° C | 54% | 1020.9 hPa | - | - | - | - |
| 1787644046 | 17.22° C | 57% | 1020.8 hPa | - | - | - | - |
| 1787643446 | 17.22° C | 57% | 1020.8 hPa | - | - | - | - |
| 1787642846 | 16.67° C | 59% | 1020.9 hPa | - | - | - | - |
| 1787642246 | 16.11° C | 61% | 1020.8 hPa | - | - | - | - |
| 1787641645 | 15° C | 64% | 1020.9 hPa | - | - | - | - |
| 1787641045 | 13.89° C | 68% | 1020.9 hPa | - | - | - | - |
| 1787640445 | 13.89° C | 69% | 1020.7 hPa | - | - | - | - |
| 1787639845 | 13.33° C | 71% | 1020.7 hPa | - | - | - | - |
| 1787639245 | 12.78° C | 71% | 1020.7 hPa | - | - | - | - |
| 1787638645 | 12.78° C | 72% | 1020.7 hPa | - | - | - | - |
| 1787638044 | 12.22° C | 74% | 1020.8 hPa | - | - | - | - |
| 1787637444 | 12.22° C | 74% | 1020.8 hPa | - | - | - | - |
| 1787636844 | 13.33° C | 69% | 1020.8 hPa | - | - | - | - |
| 1787636244 | 12.78° C | 72% | 1020.8 hPa | - | - | - | - |
| 1787635644 | 11.67° C | 75% | 1020.7 hPa | - | - | - | - |
| 1787635044 | 12.78° C | 73% | 1020.6 hPa | - | - | - | - |
| 1787634443 | 11.67° C | 78% | 1020.7 hPa | - | - | - | - |
| 1787633842 | 10.56° C | 81% | 1020.9 hPa | - | - | - | - |
| 1787633242 | 10° C | 86% | 1021 hPa | - | - | - | - |
| 1787632642 | 9.44° C | 87% | 1021.2 hPa | - | - | - | - |
| 1787632042 | 9.44° C | 87% | 1021 hPa | - | - | - | - |
| 1787631442 | 9.44° C | 87% | 1021.1 hPa | - | - | - | - |
| 1787630842 | 10° C | 86% | 1021.1 hPa | - | - | - | - |
* Rain since midnight (hover to see other rain measurements)
** Current wind speed in m/s (hover to see current wind gust speed)